createdAt,value
2022-12-01T00:00:55.008Z,4.63
2022-12-01T00:06:00.414Z,4.63
2022-12-01T00:11:05.946Z,4.38
2022-12-01T00:16:11.340Z,4.35
2022-12-01T00:21:16.451Z,4.40
2022-12-01T00:26:18.255Z,4.22
2022-12-01T00:31:19.912Z,3.97
2022-12-01T00:36:22.084Z,3.63
2022-12-01T00:41:24.674Z,3.30
2022-12-01T00:46:26.159Z,3.50
2022-12-01T00:51:27.623Z,3.17
2022-12-01T00:56:29.085Z,3.58
2022-12-01T01:01:30.658Z,3.08
2022-12-01T01:06:32.280Z,3.55
2022-12-01T01:11:33.687Z,3.92
2022-12-01T01:16:35.267Z,3.35
2022-12-01T01:21:36.780Z,3.40
2022-12-01T01:26:38.216Z,3.92
2022-12-01T01:31:39.699Z,3.08
2022-12-01T01:36:41.161Z,3.55
2022-12-01T01:41:42.601Z,3.55
2022-12-01T01:46:44.017Z,3.13
2022-12-01T01:51:47.861Z,3.08
2022-12-01T01:56:50.900Z,2.95
2022-12-01T02:01:56.213Z,3.13
2022-12-01T02:06:57.660Z,3.10
2022-12-01T02:12:14.221Z,3.58
2022-12-01T02:17:38.827Z,3.00
2022-12-01T02:22:54.147Z,2.78
2022-12-01T02:28:07.914Z,3.60
2022-12-01T02:33:17.457Z,3.42
2022-12-01T02:38:28.566Z,3.08
2022-12-01T02:43:32.331Z,2.53
2022-12-01T02:48:34.670Z,2.83
2022-12-01T02:53:36.325Z,2.97
2022-12-01T02:58:37.781Z,2.63
2022-12-01T03:03:57.096Z,2.85
2022-12-01T03:09:15.758Z,2.92
2022-12-01T03:14:25.677Z,2.20
2022-12-01T03:19:30.501Z,2.13
2022-12-01T03:24:33.151Z,1.95
2022-12-01T03:29:38.657Z,2.58
2022-12-01T03:34:45.400Z,2.88
2022-12-01T03:39:47.952Z,2.55
2022-12-01T03:44:51.932Z,2.33
2022-12-01T03:49:53.603Z,1.63
2022-12-01T03:55:01.540Z,2.22
2022-12-01T04:00:04.453Z,2.15
2022-12-01T04:05:06.388Z,2.42
2022-12-01T04:10:08.120Z,2.28
2022-12-01T04:15:12.341Z,1.88
2022-12-01T04:20:14.544Z,2.35
2022-12-01T04:25:15.992Z,1.88
2022-12-01T04:30:17.485Z,1.85
2022-12-01T04:35:18.967Z,2.35
2022-12-01T04:40:21.684Z,2.50
2022-12-01T04:45:23.135Z,2.10
2022-12-01T04:50:24.553Z,2.60
2022-12-01T04:55:26.025Z,2.50
2022-12-01T05:00:27.482Z,2.33
2022-12-01T05:05:29.329Z,2.70
2022-12-01T05:10:30.998Z,2.08
2022-12-01T05:15:32.495Z,2.15
2022-12-01T05:20:52.479Z,2.63
2022-12-01T05:25:54.092Z,2.30
2022-12-01T05:30:55.844Z,2.67
2022-12-01T05:35:57.311Z,2.35
2022-12-01T05:40:58.752Z,2.10
2022-12-01T05:46:00.253Z,2.80
2022-12-01T05:51:07.696Z,2.33
2022-12-01T05:56:09.429Z,2.30
2022-12-01T06:01:10.912Z,2.35
2022-12-01T06:06:12.372Z,2.03
2022-12-01T06:11:13.836Z,2.42
2022-12-01T06:16:15.286Z,2.33
2022-12-01T06:21:16.837Z,2.72
2022-12-01T06:26:18.283Z,2.25
2022-12-01T06:31:19.703Z,2.60
2022-12-01T06:36:21.169Z,2.55
2022-12-01T06:41:22.654Z,2.38
2022-12-01T06:46:24.259Z,1.80
2022-12-01T06:51:25.899Z,2.20
2022-12-01T06:56:27.341Z,2.55
2022-12-01T07:01:28.960Z,2.47
2022-12-01T07:06:31.270Z,2.47
2022-12-01T07:11:36.103Z,2.17
2022-12-01T07:16:37.582Z,2.92
2022-12-01T07:21:39.069Z,3.30
2022-12-01T07:26:41.279Z,2.67
2022-12-01T07:31:42.831Z,2.30
2022-12-01T07:36:44.260Z,2.92
2022-12-01T07:41:45.683Z,2.33
2022-12-01T07:46:47.170Z,1.95
2022-12-01T07:51:48.657Z,2.60
2022-12-01T07:56:50.216Z,2.47
2022-12-01T08:01:51.779Z,3.08
2022-12-01T08:06:53.271Z,2.80
2022-12-01T08:11:54.693Z,3.58
2022-12-01T08:16:56.108Z,3.53
2022-12-01T08:21:57.533Z,3.80
2022-12-01T08:27:00.124Z,2.83
2022-12-01T08:32:01.819Z,3.17
2022-12-01T08:37:03.249Z,3.28
2022-12-01T08:42:04.700Z,3.03
2022-12-01T08:47:06.324Z,2.92
2022-12-01T08:52:07.753Z,3.30
2022-12-01T08:57:09.187Z,2.80
2022-12-01T09:02:14.446Z,3.53
2022-12-01T09:07:19.144Z,3.53
2022-12-01T09:12:24.333Z,3.53
2022-12-01T09:17:25.763Z,2.88
2022-12-01T09:22:27.248Z,2.58
2022-12-01T09:27:28.685Z,2.85
2022-12-01T09:32:30.109Z,3.60
2022-12-01T09:37:31.561Z,2.42
2022-12-01T09:42:35.518Z,2.55
2022-12-01T09:47:37.730Z,2.42
2022-12-01T09:52:41.074Z,2.97
2022-12-01T09:57:43.027Z,2.10
2022-12-01T10:02:50.241Z,2.40
2022-12-01T10:08:02.188Z,2.85
2022-12-01T10:13:08.639Z,3.10
2022-12-01T10:18:18.554Z,3.45
2022-12-01T10:23:30.732Z,3.58
2022-12-01T10:28:48.542Z,2.78
2022-12-01T10:34:01.453Z,3.28
2022-12-01T10:39:05.196Z,2.78
2022-12-01T10:44:07.312Z,2.40
2022-12-01T10:49:10.089Z,2.45
2022-12-01T10:54:11.774Z,2.63
2022-12-01T10:59:21.420Z,2.58
2022-12-01T11:04:28.665Z,2.70
2022-12-01T11:09:30.501Z,3.03
2022-12-01T11:14:49.553Z,2.47
2022-12-01T11:19:51.304Z,2.72
2022-12-01T11:24:53.000Z,2.95
2022-12-01T11:29:59.935Z,3.17
2022-12-01T11:35:13.592Z,2.53
2022-12-01T11:40:24.764Z,3.50
2022-12-01T11:45:33.476Z,2.60
2022-12-01T11:50:36.943Z,2.67
2022-12-01T11:55:38.423Z,2.75
2022-12-01T12:00:47.950Z,3.30
2022-12-01T12:05:49.380Z,3.03
2022-12-01T12:10:50.845Z,3.55
2022-12-01T12:15:52.402Z,3.10
2022-12-01T12:20:53.840Z,2.90
2022-12-01T12:25:55.350Z,2.90
2022-12-01T12:31:15.290Z,4.22
2022-12-01T12:36:35.440Z,4.05
2022-12-01T12:41:43.244Z,4.22
2022-12-01T12:46:59.693Z,4.53
2022-12-01T12:52:08.891Z,3.65
2022-12-01T12:57:23.407Z,3.70
2022-12-01T13:02:33.137Z,3.58
2022-12-01T13:07:38.482Z,3.13
2022-12-01T13:12:43.599Z,2.88
2022-12-01T13:17:48.352Z,3.00
2022-12-01T13:22:50.118Z,2.72
2022-12-01T13:27:52.382Z,2.83
2022-12-01T13:33:01.548Z,2.03
2022-12-01T13:38:21.795Z,2.17
2022-12-01T13:43:23.350Z,1.80
2022-12-01T13:48:29.557Z,2.40
2022-12-01T13:53:38.193Z,2.35
2022-12-01T13:58:49.758Z,2.25
2022-12-01T14:04:03.709Z,1.77
2022-12-01T14:09:06.740Z,1.77
2022-12-01T14:14:11.672Z,2.28
2022-12-01T14:19:31.873Z,2.35
2022-12-01T14:24:43.749Z,2.05
2022-12-01T14:29:45.193Z,2.00
2022-12-01T14:34:50.848Z,2.00
2022-12-01T14:39:56.817Z,2.25
2022-12-01T14:44:58.641Z,2.60
2022-12-01T14:50:02.747Z,2.60
2022-12-01T14:55:07.273Z,2.80
2022-12-01T15:00:11.098Z,2.72
2022-12-01T15:05:12.598Z,2.50
2022-12-01T15:10:35.348Z,2.70
2022-12-01T15:15:37.799Z,2.30
2022-12-01T15:20:43.571Z,2.67
2022-12-01T15:25:47.904Z,2.10
2022-12-01T15:30:53.754Z,2.38
2022-12-01T15:35:55.727Z,2.25
2022-12-01T15:46:26.239Z,2.40
2022-12-01T15:51:27.895Z,2.30
2022-12-01T15:56:34.240Z,1.95
2022-12-01T16:01:36.293Z,2.30
2022-12-01T16:06:38.264Z,2.05
2022-12-01T16:11:40.281Z,2.55
2022-12-01T16:16:43.325Z,2.25
2022-12-01T16:21:52.821Z,2.22
2022-12-01T16:27:04.900Z,2.97
2022-12-01T16:32:20.220Z,2.55
2022-12-01T16:37:22.364Z,2.35
2022-12-01T16:42:23.915Z,3.67
2022-12-01T16:47:25.706Z,2.58
2022-12-01T16:52:44.740Z,2.95
2022-12-01T16:57:46.913Z,3.63
2022-12-01T17:02:48.488Z,3.25
2022-12-01T17:07:50.365Z,3.58
2022-12-01T17:12:52.063Z,3.38
2022-12-01T17:17:53.578Z,2.67
2022-12-01T17:22:55.025Z,3.17
2022-12-01T17:27:56.593Z,3.20
2022-12-01T17:32:58.559Z,3.65
2022-12-01T17:38:00.008Z,3.67
2022-12-01T17:43:01.688Z,3.28
2022-12-01T17:48:03.174Z,3.90
2022-12-01T17:53:04.639Z,3.67
2022-12-01T17:58:06.614Z,3.47
2022-12-01T18:03:08.216Z,3.20
2022-12-01T18:08:09.881Z,3.35
2022-12-01T18:13:11.562Z,3.42
2022-12-01T18:18:13.054Z,2.85
2022-12-01T18:23:14.601Z,3.03
2022-12-01T18:28:16.023Z,3.70
2022-12-01T18:33:17.984Z,7.88
2022-12-01T18:38:19.440Z,9.73
2022-12-01T18:43:20.886Z,7.40
2022-12-01T18:48:22.488Z,5.65
2022-12-01T18:53:23.929Z,4.45
2022-12-01T18:58:25.351Z,4.13
2022-12-01T19:03:30.386Z,4.13
2022-12-01T19:08:31.791Z,3.67
2022-12-01T19:13:33.534Z,3.75
2022-12-01T19:18:35.536Z,4.53
2022-12-01T19:23:37.028Z,3.22
2022-12-01T19:28:38.635Z,3.47
2022-12-01T19:33:40.192Z,3.70
2022-12-01T19:38:41.683Z,3.85
2022-12-01T19:43:43.360Z,4.15
2022-12-01T19:48:45.134Z,3.90
2022-12-01T19:53:46.739Z,3.55
2022-12-01T19:58:48.484Z,3.80
2022-12-01T20:03:51.447Z,3.45
2022-12-01T20:08:54.212Z,4.45
2022-12-01T20:13:55.755Z,3.90
2022-12-01T20:18:59.365Z,3.88
2022-12-01T20:24:04.849Z,3.97
2022-12-01T20:29:08.612Z,3.95
2022-12-01T20:34:12.005Z,5.07
2022-12-01T20:39:13.640Z,5.35
2022-12-01T20:44:16.125Z,5.32
2022-12-01T20:49:18.029Z,4.85
2022-12-01T20:54:27.758Z,4.38
2022-12-01T20:59:30.304Z,4.85
2022-12-01T21:04:31.841Z,6.03
2022-12-01T21:09:33.315Z,6.28
2022-12-01T21:14:37.675Z,5.78
2022-12-01T21:19:43.969Z,6.60
2022-12-01T21:24:46.738Z,6.07
2022-12-01T21:29:48.960Z,7.30
2022-12-01T21:34:50.753Z,8.68
2022-12-01T21:39:53.189Z,7.93
2022-12-01T21:44:55.925Z,6.93
2022-12-01T21:49:58.084Z,5.28
2022-12-01T21:55:14.735Z,6.45
2022-12-01T22:00:28.151Z,4.78
2022-12-01T22:05:38.296Z,4.22
2022-12-01T22:15:41.683Z,3.65
2022-12-01T22:20:43.173Z,3.65
2022-12-01T22:25:45.885Z,4.10
2022-12-01T22:30:47.652Z,3.22
2022-12-01T22:35:50.115Z,3.65
2022-12-01T22:40:57.789Z,4.75
2022-12-01T22:46:02.071Z,3.70
2022-12-01T22:51:23.816Z,3.70
2022-12-01T22:56:39.438Z,3.45
2022-12-01T23:02:01.250Z,4.00
2022-12-01T23:07:10.279Z,4.13
2022-12-01T23:12:11.681Z,3.83
2022-12-01T23:17:14.838Z,3.95
2022-12-01T23:22:16.793Z,3.85
2022-12-01T23:27:18.231Z,3.55
2022-12-01T23:32:19.650Z,3.92
2022-12-01T23:37:28.973Z,4.15
2022-12-01T23:42:30.864Z,3.47
2022-12-01T23:47:32.286Z,3.65
2022-12-01T23:52:35.139Z,3.80
2022-12-01T23:57:37.226Z,4.25
